Terminal Aerodrome Forecast
Issued by NWS

Home | Current Version | Previous Version | Text Only | Print | Product List | Glossary On
Versions: 1 2 3 4 5 6 7 8 9 10 11 12 13 14
711
FTAK31 PAJN 141729
TAFAGY
TAF
PAGY 141729Z 1418/1518 04005KT P6SM -SHRA SCT025 OVC050
     FM142100 21005KT P6SM SCT030 OVC060
     FM150700 21005KT P6SM BKN030 OVC050
      AMD LTD TO CLD VIS AND WIND=

USA.gov is the U.S. government's official web portal to all federal, state and local government web resources and services.